createdAt,value
2023-01-18T00:04:14.238Z,12.60
2023-01-18T00:06:41.827Z,12.32
2023-01-18T00:09:09.556Z,13.00
2023-01-18T00:11:37.326Z,12.45
2023-01-18T00:14:04.759Z,12.82
2023-01-18T00:16:32.326Z,13.18
2023-01-18T00:19:00.569Z,13.23
2023-01-18T00:21:28.935Z,12.40
2023-01-18T00:23:57.038Z,12.63
2023-01-18T00:26:24.554Z,12.48
2023-01-18T00:28:52.015Z,14.23
2023-01-18T00:31:20.817Z,13.43
2023-01-18T00:33:50.247Z,12.60
2023-01-18T00:36:18.559Z,12.60
2023-01-18T00:38:51.817Z,13.23
2023-01-18T00:41:19.967Z,14.73
2023-01-18T00:43:48.099Z,13.05
2023-01-18T00:46:17.164Z,12.88
2023-01-18T00:48:45.068Z,14.20
2023-01-18T00:51:17.484Z,12.80
2023-01-18T00:53:46.039Z,12.48
2023-01-18T00:56:18.819Z,13.48
2023-01-18T00:58:47.368Z,12.27
2023-01-18T01:03:55.514Z,12.45
2023-01-18T01:06:44.586Z,12.88
2023-01-18T01:09:15.019Z,12.82
2023-01-18T01:12:05.899Z,12.50
2023-01-18T01:14:53.315Z,13.18
2023-01-18T01:17:39.770Z,13.23
2023-01-18T01:20:26.730Z,12.95
2023-01-18T01:23:13.198Z,13.20
2023-01-18T01:25:59.623Z,12.35
2023-01-18T01:28:27.203Z,12.88
2023-01-18T01:31:00.655Z,12.65
2023-01-18T01:33:29.345Z,13.75
2023-01-18T01:35:57.857Z,13.80
2023-01-18T01:38:25.660Z,13.55
2023-01-18T01:40:59.143Z,13.00
2023-01-18T01:43:42.252Z,13.63
2023-01-18T01:46:21.692Z,13.18
2023-01-18T01:48:49.671Z,12.93
2023-01-18T01:51:20.040Z,14.23
2023-01-18T01:56:16.212Z,13.65
2023-01-18T01:58:43.858Z,13.65
2023-01-18T02:01:11.423Z,13.02
2023-01-18T02:03:42.877Z,13.05
2023-01-18T02:06:31.207Z,13.15
2023-01-18T02:09:02.862Z,13.25
2023-01-18T02:11:30.701Z,12.85
2023-01-18T02:14:01.350Z,12.27
2023-01-18T02:16:40.943Z,12.82
2023-01-18T02:19:08.526Z,13.75
2023-01-18T02:21:39.538Z,12.60
2023-01-18T02:24:26.217Z,13.07
2023-01-18T02:26:54.076Z,13.18
2023-01-18T02:29:40.578Z,12.68
2023-01-18T02:32:08.487Z,13.25
2023-01-18T02:34:39.832Z,12.27
2023-01-18T02:37:07.575Z,12.05
2023-01-18T02:39:38.418Z,12.65
2023-01-18T02:42:32.085Z,11.55
2023-01-18T02:45:19.731Z,13.02
2023-01-18T02:47:47.700Z,12.98
2023-01-18T02:50:23.559Z,13.40
2023-01-18T02:52:53.587Z,12.30
2023-01-18T02:55:21.160Z,13.35
2023-01-18T02:57:49.295Z,12.10
2023-01-18T03:00:19.205Z,13.15
2023-01-18T03:02:49.317Z,13.68
2023-01-18T03:05:17.894Z,12.20
2023-01-18T03:07:59.080Z,12.18
2023-01-18T03:10:29.167Z,12.05
2023-01-18T03:15:31.703Z,11.90
2023-01-18T03:18:02.733Z,11.88
2023-01-18T03:20:33.641Z,11.15
2023-01-18T03:23:22.928Z,11.52
2023-01-18T03:25:51.925Z,11.93
2023-01-18T03:28:47.315Z,11.02
2023-01-18T03:31:36.661Z,11.65
2023-01-18T03:34:16.203Z,11.68
2023-01-18T03:36:50.897Z,11.40
2023-01-18T03:39:20.444Z,12.68
2023-01-18T03:41:51.800Z,12.30
2023-01-18T03:44:25.720Z,12.50
2023-01-18T03:46:53.342Z,12.57
2023-01-18T03:49:21.270Z,11.57
2023-01-18T03:52:19.301Z,12.27
2023-01-18T03:54:55.914Z,12.25
2023-01-18T03:57:30.469Z,12.32
2023-01-18T03:59:58.391Z,12.98
2023-01-18T04:02:27.610Z,13.27
2023-01-18T04:04:57.896Z,13.05
2023-01-18T04:09:53.537Z,12.18
2023-01-18T04:12:21.197Z,13.77
2023-01-18T04:14:51.123Z,13.45
2023-01-18T04:17:19.401Z,12.13
2023-01-18T04:19:47.515Z,12.80
2023-01-18T04:22:14.960Z,12.50
2023-01-18T04:24:43.329Z,13.35
2023-01-18T04:27:11.168Z,13.38
2023-01-18T04:29:38.604Z,12.85
2023-01-18T04:32:09.234Z,11.90
2023-01-18T04:34:36.935Z,12.63
2023-01-18T04:37:04.570Z,12.48
2023-01-18T04:39:32.275Z,12.57
2023-01-18T04:41:59.829Z,11.95
2023-01-18T04:44:27.392Z,13.32
2023-01-18T04:46:54.778Z,12.40
2023-01-18T04:49:22.573Z,13.10
2023-01-18T04:51:50.106Z,13.93
2023-01-18T04:54:19.315Z,14.55
2023-01-18T04:56:47.277Z,13.45
2023-01-18T04:59:17.496Z,14.10
2023-01-18T05:01:46.139Z,13.43
2023-01-18T05:04:14.862Z,12.65
2023-01-18T05:06:42.510Z,12.82
2023-01-18T05:09:12.551Z,13.75
2023-01-18T05:11:40.311Z,12.05
2023-01-18T05:14:09.108Z,12.43
2023-01-18T05:16:36.687Z,12.35
2023-01-18T05:19:04.461Z,12.70
2023-01-18T05:21:31.904Z,13.18
2023-01-18T05:23:59.700Z,13.40
2023-01-18T05:26:27.418Z,13.02
2023-01-18T05:28:58.489Z,13.15
2023-01-18T05:31:26.074Z,13.40
2023-01-18T05:33:53.694Z,15.43
2023-01-18T05:36:21.418Z,12.27
2023-01-18T05:38:49.269Z,12.60
2023-01-18T05:41:17.423Z,11.40
2023-01-18T05:43:44.849Z,12.38
2023-01-18T05:46:12.257Z,12.65
2023-01-18T05:48:39.963Z,11.98
2023-01-18T05:51:11.342Z,12.38
2023-01-18T05:53:40.659Z,12.95
2023-01-18T05:56:09.019Z,13.07
2023-01-18T05:58:36.699Z,12.20
2023-01-18T06:01:04.935Z,12.27
2023-01-18T06:03:32.427Z,12.98
2023-01-18T06:06:00.002Z,12.15
2023-01-18T06:08:28.861Z,12.15
2023-01-18T06:10:57.195Z,12.77
2023-01-18T06:13:25.072Z,12.50
2023-01-18T06:15:54.989Z,11.90
2023-01-18T06:18:24.022Z,13.05
2023-01-18T06:20:54.721Z,12.43
2023-01-18T06:23:22.482Z,12.95
2023-01-18T06:25:50.136Z,12.98
2023-01-18T06:28:19.788Z,12.77
2023-01-18T06:30:48.143Z,12.02
2023-01-18T06:33:16.757Z,12.88
2023-01-18T06:35:44.278Z,13.57
2023-01-18T06:38:12.398Z,12.20
2023-01-18T06:40:40.063Z,12.25
2023-01-18T06:43:09.481Z,12.93
2023-01-18T06:45:37.655Z,11.75
2023-01-18T06:48:05.299Z,12.77
2023-01-18T06:50:33.158Z,12.40
2023-01-18T06:53:01.470Z,12.02
2023-01-18T06:55:29.163Z,12.40
2023-01-18T06:57:57.172Z,12.55
2023-01-18T07:00:25.421Z,12.77
2023-01-18T07:02:53.369Z,12.18
2023-01-18T07:05:21.073Z,11.55
2023-01-18T07:07:48.866Z,11.93
2023-01-18T07:10:17.321Z,11.90
2023-01-18T07:12:48.748Z,13.48
2023-01-18T07:15:22.921Z,11.68
2023-01-18T07:17:51.252Z,12.10
2023-01-18T07:20:20.035Z,12.80
2023-01-18T07:22:55.505Z,12.45
2023-01-18T07:25:23.139Z,12.65
2023-01-18T07:27:51.072Z,12.15
2023-01-18T07:30:18.953Z,12.43
2023-01-18T07:32:50.456Z,12.38
2023-01-18T07:35:20.169Z,12.02
2023-01-18T07:37:53.610Z,12.35
2023-01-18T07:40:22.451Z,12.10
2023-01-18T07:42:50.145Z,11.95
2023-01-18T07:45:18.139Z,12.80
2023-01-18T07:47:46.980Z,11.88
2023-01-18T07:50:14.720Z,13.38
2023-01-18T07:52:42.450Z,13.55
2023-01-18T07:55:10.022Z,13.27
2023-01-18T07:57:37.987Z,13.55
2023-01-18T08:00:07.497Z,13.02
2023-01-18T08:02:40.525Z,13.20
2023-01-18T08:05:10.879Z,13.85
2023-01-18T08:10:06.235Z,12.43
2023-01-18T08:12:34.072Z,13.68
2023-01-18T08:15:01.729Z,12.63
2023-01-18T08:17:30.248Z,14.07
2023-01-18T08:19:58.504Z,14.20
2023-01-18T08:22:26.203Z,14.23
2023-01-18T08:24:54.296Z,14.35
2023-01-18T08:27:22.759Z,15.52
2023-01-18T08:29:50.271Z,15.50
2023-01-18T08:32:18.579Z,15.23
2023-01-18T08:34:46.202Z,14.77
2023-01-18T08:37:13.838Z,15.35
2023-01-18T08:39:41.492Z,14.55
2023-01-18T08:42:12.199Z,15.45
2023-01-18T08:44:41.210Z,15.90
2023-01-18T08:47:09.147Z,15.32
2023-01-18T08:49:36.794Z,15.93
2023-01-18T08:52:04.526Z,16.30
2023-01-18T08:54:31.951Z,16.30
2023-01-18T08:56:59.542Z,16.15
2023-01-18T08:59:27.117Z,16.30
2023-01-18T09:01:54.966Z,17.42
2023-01-18T09:06:52.828Z,16.30
2023-01-18T09:09:20.455Z,17.10
2023-01-18T09:11:51.662Z,16.80
2023-01-18T09:14:19.506Z,16.13
2023-01-18T09:16:47.039Z,16.88
2023-01-18T09:19:16.016Z,16.60
2023-01-18T09:21:46.006Z,16.15
2023-01-18T09:24:13.483Z,15.30
2023-01-18T09:26:41.302Z,16.50
2023-01-18T09:29:08.724Z,16.02
2023-01-18T09:31:36.358Z,15.18
2023-01-18T09:34:18.341Z,14.75
2023-01-18T09:36:48.302Z,16.05
2023-01-18T09:39:16.272Z,14.63
2023-01-18T09:41:44.824Z,15.32
2023-01-18T09:44:21.433Z,14.95
2023-01-18T09:46:54.126Z,13.98
2023-01-18T09:49:24.465Z,14.27
2023-01-18T09:52:03.642Z,14.77
2023-01-18T09:54:38.331Z,13.55
2023-01-18T09:57:09.837Z,13.45
2023-01-18T09:59:55.043Z,14.07
2023-01-18T10:02:23.893Z,12.68
2023-01-18T10:04:56.315Z,12.88
2023-01-18T10:07:25.200Z,12.82
2023-01-18T10:09:54.423Z,12.90
2023-01-18T10:12:25.069Z,12.02
2023-01-18T10:15:01.359Z,12.55
2023-01-18T10:17:37.323Z,11.68
2023-01-18T10:20:19.181Z,12.00
2023-01-18T10:22:52.597Z,11.35
2023-01-18T10:25:41.929Z,12.88
2023-01-18T10:28:25.374Z,11.50
2023-01-18T10:31:12.876Z,11.60
2023-01-18T10:33:42.315Z,11.57
2023-01-18T10:36:19.366Z,11.95
2023-01-18T10:38:47.750Z,11.45
2023-01-18T10:41:20.625Z,12.30
2023-01-18T10:43:48.704Z,10.80
2023-01-18T10:46:18.956Z,11.02
2023-01-18T10:48:59.374Z,11.48
2023-01-18T10:51:37.814Z,10.85
2023-01-18T10:54:26.664Z,10.43
2023-01-18T10:57:05.660Z,10.55
2023-01-18T10:59:38.035Z,9.88
2023-01-18T11:02:05.925Z,9.95
2023-01-18T11:04:34.494Z,9.98
2023-01-18T11:07:03.502Z,9.35
2023-01-18T11:09:33.334Z,9.75
2023-01-18T11:12:37.688Z,9.98
2023-01-18T11:15:14.402Z,9.93
2023-01-18T11:17:46.621Z,9.88
2023-01-18T11:20:19.335Z,9.63
2023-01-18T11:23:01.731Z,9.60
2023-01-18T11:25:37.859Z,9.30
2023-01-18T11:28:09.488Z,9.63
2023-01-18T11:30:38.057Z,9.45
2023-01-18T11:33:05.643Z,9.30
2023-01-18T11:35:37.447Z,9.75
2023-01-18T11:38:10.732Z,10.20
2023-01-18T11:40:39.062Z,10.07
2023-01-18T11:43:22.613Z,9.05
2023-01-18T11:45:59.886Z,9.82
2023-01-18T11:48:43.143Z,8.70
2023-01-18T11:51:20.006Z,8.95
2023-01-18T11:53:59.354Z,8.95
2023-01-18T11:56:30.239Z,8.60
2023-01-18T11:58:57.861Z,8.95
2023-01-18T12:01:25.821Z,8.45
2023-01-18T12:03:57.595Z,8.93
2023-01-18T12:06:41.475Z,8.23
2023-01-18T12:09:15.578Z,7.80
2023-01-18T12:12:03.643Z,7.85
2023-01-18T12:14:38.224Z,8.23
2023-01-18T12:17:12.026Z,8.85
2023-01-18T12:19:39.708Z,8.07
2023-01-18T12:22:10.419Z,8.57
2023-01-18T12:24:57.148Z,8.40
2023-01-18T12:27:47.854Z,8.40
2023-01-18T12:30:26.961Z,7.53
2023-01-18T12:32:56.070Z,8.85
2023-01-18T12:35:33.499Z,7.68
2023-01-18T12:38:13.423Z,8.13
2023-01-18T12:40:44.145Z,7.22
2023-01-18T12:43:12.969Z,6.85
2023-01-18T12:45:40.584Z,6.43
2023-01-18T12:48:09.294Z,7.00
2023-01-18T12:50:37.491Z,6.60
2023-01-18T12:53:07.043Z,5.55
2023-01-18T12:55:36.427Z,6.10
2023-01-18T12:58:04.271Z,5.80
2023-01-18T13:00:40.266Z,6.28
2023-01-18T13:03:12.237Z,5.65
2023-01-18T13:05:52.655Z,5.25
2023-01-18T13:08:28.461Z,6.43
2023-01-18T13:11:17.525Z,5.35
2023-01-18T13:13:46.070Z,5.93
2023-01-18T13:16:20.117Z,5.53
2023-01-18T13:19:10.893Z,5.93
2023-01-18T13:21:53.680Z,5.68
2023-01-18T13:24:24.320Z,5.78
2023-01-18T13:26:53.724Z,5.50
2023-01-18T13:29:22.465Z,5.50
2023-01-18T13:31:50.440Z,5.25
2023-01-18T13:34:25.111Z,5.57
2023-01-18T13:37:02.489Z,5.20
2023-01-18T13:39:46.413Z,5.85
2023-01-18T13:42:24.380Z,5.38
2023-01-18T13:45:14.145Z,5.88
2023-01-18T13:47:44.131Z,5.78
2023-01-18T13:50:36.537Z,5.70
2023-01-18T13:53:11.666Z,4.88
2023-01-18T13:55:47.536Z,5.70
2023-01-18T13:58:20.020Z,5.13
2023-01-18T14:00:50.532Z,4.45
2023-01-18T14:03:23.194Z,5.15
2023-01-18T14:05:53.207Z,4.25
2023-01-18T14:08:22.529Z,4.63
2023-01-18T14:10:55.524Z,4.30
2023-01-18T14:13:42.583Z,3.85
2023-01-18T14:16:17.334Z,3.88
2023-01-18T14:18:55.520Z,4.57
2023-01-18T14:21:23.349Z,3.85
2023-01-18T14:23:51.590Z,3.53
2023-01-18T14:26:20.256Z,4.20
2023-01-18T14:29:00.196Z,3.72
2023-01-18T14:31:29.933Z,3.90
2023-01-18T14:33:58.477Z,3.70
2023-01-18T14:36:27.603Z,3.40
2023-01-18T14:39:13.012Z,3.88
2023-01-18T14:41:46.077Z,3.63
2023-01-18T14:44:56.436Z,3.60
2023-01-18T14:47:28.002Z,3.42
2023-01-18T14:49:56.338Z,3.00
2023-01-18T14:52:27.012Z,3.40
2023-01-18T14:59:57.312Z,4.50
2023-01-18T15:02:29.544Z,4.82
2023-01-18T15:05:18.038Z,4.07
2023-01-18T15:07:55.488Z,4.20
2023-01-18T15:10:23.841Z,4.93
2023-01-18T15:12:56.323Z,4.15
2023-01-18T15:15:27.963Z,4.35
2023-01-18T15:17:57.635Z,4.25
2023-01-18T15:20:25.575Z,4.50
2023-01-18T15:22:54.366Z,4.60
2023-01-18T15:25:26.473Z,3.88
2023-01-18T15:27:55.253Z,5.22
2023-01-18T15:30:23.963Z,4.15
2023-01-18T15:32:54.293Z,4.80
2023-01-18T15:35:23.991Z,4.20
2023-01-18T15:37:52.162Z,4.50
2023-01-18T15:40:19.701Z,3.92
2023-01-18T15:43:00.222Z,4.97
2023-01-18T15:48:02.752Z,3.85
2023-01-18T15:50:34.141Z,4.60
2023-01-18T15:53:06.852Z,4.68
2023-01-18T15:55:49.812Z,3.97
2023-01-18T15:58:38.273Z,4.22
2023-01-18T16:01:17.222Z,4.40
2023-01-18T16:03:51.123Z,4.60
2023-01-18T16:06:21.648Z,3.95
2023-01-18T16:08:59.646Z,4.70
2023-01-18T16:11:56.479Z,4.45
2023-01-18T16:14:46.612Z,4.32
2023-01-18T16:17:16.210Z,4.57
2023-01-18T16:19:46.203Z,5.22
2023-01-18T16:22:26.557Z,4.78
2023-01-18T16:24:55.360Z,4.43
2023-01-18T16:27:24.180Z,5.00
2023-01-18T16:29:56.456Z,5.20
2023-01-18T16:32:24.149Z,4.78
2023-01-18T16:34:55.632Z,5.30
2023-01-18T16:37:23.165Z,5.45
2023-01-18T16:39:50.727Z,5.35
2023-01-18T16:42:21.651Z,5.35
2023-01-18T16:44:52.966Z,5.15
2023-01-18T16:47:21.035Z,5.00
2023-01-18T16:49:49.562Z,5.43
2023-01-18T16:52:17.728Z,5.90
2023-01-18T16:54:46.535Z,5.18
2023-01-18T16:57:24.063Z,5.15
2023-01-18T16:59:52.800Z,5.78
2023-01-18T17:02:20.676Z,4.90
2023-01-18T17:04:48.299Z,5.25
2023-01-18T17:07:19.025Z,5.95
2023-01-18T17:09:49.390Z,6.47
2023-01-18T17:12:17.768Z,6.10
2023-01-18T17:14:45.409Z,5.97
2023-01-18T17:17:13.864Z,6.63
2023-01-18T17:19:41.834Z,5.95
2023-01-18T17:22:09.317Z,5.95
2023-01-18T17:24:37.209Z,6.28
2023-01-18T17:27:04.930Z,6.68
2023-01-18T17:29:32.515Z,6.72
2023-01-18T17:32:00.111Z,6.82
2023-01-18T17:34:28.727Z,7.13
2023-01-18T17:36:58.430Z,6.32
2023-01-18T17:39:43.531Z,7.00
2023-01-18T17:42:25.913Z,7.78
2023-01-18T17:45:04.298Z,7.75
2023-01-18T17:47:32.425Z,7.05
2023-01-18T17:50:00.130Z,7.57
2023-01-18T17:52:28.917Z,7.65
2023-01-18T17:54:56.314Z,7.82
2023-01-18T17:57:23.717Z,7.25
2023-01-18T17:59:55.851Z,6.47
2023-01-18T18:02:24.632Z,8.32
2023-01-18T18:04:52.524Z,7.78
2023-01-18T18:07:20.161Z,7.55
2023-01-18T18:09:48.138Z,8.25
2023-01-18T18:12:15.884Z,7.97
2023-01-18T18:14:43.696Z,7.88
2023-01-18T18:17:11.156Z,7.68
2023-01-18T18:19:38.750Z,7.72
2023-01-18T18:22:06.887Z,8.18
2023-01-18T18:24:34.595Z,7.95
2023-01-18T18:27:03.089Z,9.10
2023-01-18T18:29:30.814Z,7.97
2023-01-18T18:31:58.388Z,8.60
2023-01-18T18:34:25.950Z,7.45
2023-01-18T18:36:53.651Z,6.97
2023-01-18T18:39:21.341Z,7.22
2023-01-18T18:41:49.016Z,8.75
2023-01-18T18:44:21.068Z,7.63
2023-01-18T18:46:48.767Z,8.25
2023-01-18T18:49:17.192Z,7.80
2023-01-18T18:51:46.160Z,7.85
2023-01-18T18:54:14.086Z,7.65
2023-01-18T18:56:41.859Z,8.07
2023-01-18T18:59:09.477Z,7.95
2023-01-18T19:01:37.277Z,7.13
2023-01-18T19:04:05.428Z,7.53
2023-01-18T19:06:33.482Z,7.60
2023-01-18T19:09:01.979Z,7.60
2023-01-18T19:11:30.305Z,8.20
2023-01-18T19:13:57.971Z,7.20
2023-01-18T19:16:25.496Z,8.68
2023-01-18T19:18:53.027Z,8.48
2023-01-18T19:21:20.828Z,7.38
2023-01-18T19:23:51.630Z,7.70
2023-01-18T19:26:19.219Z,7.05
2023-01-18T19:28:47.359Z,8.07
2023-01-18T19:31:14.897Z,7.28
2023-01-18T19:33:43.114Z,7.75
2023-01-18T19:36:16.767Z,7.82
2023-01-18T19:38:48.177Z,8.07
2023-01-18T19:41:20.340Z,8.00
2023-01-18T19:43:50.843Z,7.40
2023-01-18T19:46:20.239Z,7.65
2023-01-18T19:48:48.124Z,7.65
2023-01-18T19:51:22.721Z,7.78
2023-01-18T19:53:52.923Z,8.48
2023-01-18T19:56:20.971Z,7.90
2023-01-18T19:58:50.019Z,8.48
2023-01-18T20:01:34.701Z,8.40
2023-01-18T20:04:16.293Z,8.20
2023-01-18T20:06:46.751Z,8.05
2023-01-18T20:09:23.363Z,8.63
2023-01-18T20:14:33.515Z,7.95
2023-01-18T20:17:19.657Z,8.27
2023-01-18T20:19:49.818Z,8.75
2023-01-18T20:22:34.277Z,8.00
2023-01-18T20:25:07.019Z,8.10
2023-01-18T20:27:34.635Z,8.77
2023-01-18T20:30:07.136Z,9.15
2023-01-18T20:32:37.651Z,8.23
2023-01-18T20:38:38.000Z,9.38
2023-01-18T20:41:06.679Z,8.50
2023-01-18T20:43:34.045Z,8.90
2023-01-18T20:46:08.933Z,9.07
2023-01-18T20:48:37.100Z,10.40
2023-01-18T20:51:08.187Z,10.05
2023-01-18T20:53:38.255Z,9.43
2023-01-18T20:56:26.959Z,8.85
2023-01-18T20:58:55.937Z,9.00
2023-01-18T21:01:24.064Z,9.63
2023-01-18T21:03:55.595Z,10.38
2023-01-18T21:06:23.647Z,10.20
2023-01-18T21:08:55.084Z,10.02
2023-01-18T21:11:26.068Z,10.10
2023-01-18T21:13:54.731Z,10.18
2023-01-18T21:16:23.633Z,9.93
2023-01-18T21:18:56.370Z,10.55
2023-01-18T21:21:33.214Z,9.82
2023-01-18T21:24:01.073Z,9.40
2023-01-18T21:26:29.062Z,10.40
2023-01-18T21:29:03.849Z,10.55
2023-01-18T21:31:31.945Z,10.52
2023-01-18T21:33:59.733Z,10.82
2023-01-18T21:36:28.663Z,10.85
2023-01-18T21:38:56.533Z,10.88
2023-01-18T21:41:54.687Z,10.82
2023-01-18T21:44:40.968Z,10.35
2023-01-18T21:47:08.821Z,10.52
2023-01-18T21:53:04.480Z,10.52
2023-01-18T21:55:40.975Z,10.10
2023-01-18T21:58:27.558Z,10.80
2023-01-18T22:00:55.244Z,10.82
2023-01-18T22:03:22.713Z,11.30
2023-01-18T22:05:50.458Z,11.48
2023-01-18T22:08:18.986Z,12.68
2023-01-18T22:10:49.932Z,11.63
2023-01-18T22:13:18.886Z,12.02
2023-01-18T22:15:48.135Z,11.93
2023-01-18T22:18:17.204Z,12.18
2023-01-18T22:20:44.861Z,11.93
2023-01-18T22:23:12.877Z,12.00
2023-01-18T22:25:42.821Z,12.30
2023-01-18T22:28:11.482Z,12.25
2023-01-18T22:30:40.718Z,12.57
2023-01-18T22:33:08.232Z,13.15
2023-01-18T22:35:35.895Z,12.48
2023-01-18T22:38:03.696Z,13.50
2023-01-18T22:40:31.913Z,13.77
2023-01-18T22:42:59.465Z,13.23
2023-01-18T22:45:27.495Z,14.05
2023-01-18T22:47:57.477Z,14.27
2023-01-18T22:50:25.352Z,13.90
2023-01-18T22:52:52.971Z,14.15
2023-01-18T22:55:20.659Z,13.90
2023-01-18T22:57:48.289Z,14.52
2023-01-18T23:00:16.071Z,14.20
2023-01-18T23:02:43.542Z,14.82
2023-01-18T23:05:11.246Z,15.38
2023-01-18T23:07:47.214Z,15.32
2023-01-18T23:10:23.880Z,14.27
2023-01-18T23:12:52.884Z,15.50
2023-01-18T23:15:39.362Z,16.35
2023-01-18T23:18:07.030Z,15.70
2023-01-18T23:20:34.501Z,17.52
2023-01-18T23:23:04.331Z,15.88
2023-01-18T23:25:35.076Z,16.30
2023-01-18T23:28:03.436Z,14.63
2023-01-18T23:30:32.775Z,15.45
2023-01-18T23:33:00.445Z,15.25
2023-01-18T23:35:28.240Z,16.17
2023-01-18T23:37:55.753Z,15.63
2023-01-18T23:40:42.033Z,15.82
2023-01-18T23:43:59.876Z,14.73
2023-01-18T23:49:37.361Z,14.80
2023-01-18T23:52:31.370Z,14.70
2023-01-18T23:55:01.022Z,15.02
2023-01-18T23:57:34.512Z,15.57
